Time;durP1;ratioP1;P1;durP2;ratioP2;P2;SDS_P1;SDS_P2;PMS_P1;PMS_P2;Temp;Humidity;BMP_temperature;BMP_pressure;BME280_temperature;BME280_humidity;BME280_pressure;Samples;Min_cycle;Max_cycle;Signal;HPM_P1;HPM_P2
2023/03/06 00:00:25;;;;;;;11.47;6.53;;;;;;;-0.82;100.00;95456.44;5093560;28;20886;-76
2023/03/06 00:02:52;;;;;;;7.50;5.90;;;;;;;-0.76;100.00;95468.34;5086580;28;20823;-76
2023/03/06 00:05:22;;;;;;;7.03;5.83;;;;;;;-0.79;100.00;95474.09;5073195;28;20435;-76
2023/03/06 00:07:49;;;;;;;13.10;8.77;;;;;;;-0.79;100.00;95466.31;5073159;28;20440;-76
2023/03/06 00:10:18;;;;;;;14.33;7.83;;;;;;;-1.01;100.00;95422.66;5088054;28;20430;-76
2023/03/06 00:12:45;;;;;;;9.80;7.30;;;;;;;-0.76;100.00;95465.75;5093593;28;20443;-76
2023/03/06 00:15:13;;;;;;;9.47;6.70;;;;;;;-0.91;100.00;95442.56;5093253;28;20463;-75
2023/03/06 00:17:40;;;;;;;9.00;7.00;;;;;;;-0.93;100.00;95442.06;5086552;28;20440;-76
2023/03/06 00:20:09;;;;;;;8.07;6.43;;;;;;;-0.89;100.00;95437.84;5074286;28;20452;-76
2023/03/06 00:22:36;;;;;;;10.30;6.70;;;;;;;-0.85;100.00;95454.41;5072964;28;20456;-76
2023/03/06 00:25:04;;;;;;;10.43;6.43;;;;;;;-1.10;100.00;95419.13;5075696;28;20417;-76
2023/03/06 00:27:31;;;;;;;7.83;6.80;;;;;;;-1.02;100.00;95430.72;5093036;28;20475;-76
2023/03/06 00:30:00;;;;;;;11.30;6.37;;;;;;;-0.81;100.00;95454.63;5073283;28;20493;-76
2023/03/06 00:32:27;;;;;;;8.93;6.30;;;;;;;-0.79;100.00;95455.16;5056175;28;20480;-76
2023/03/06 00:34:54;;;;;;;8.93;6.23;;;;;;;-0.79;100.00;95449.97;5075988;28;20467;-76
2023/03/06 00:37:23;;;;;;;8.10;6.27;;;;;;;-0.94;100.00;95419.72;5062317;28;20472;-76
2023/03/06 00:39:50;;;;;;;10.90;7.27;;;;;;;-0.84;100.00;95445.56;5072505;28;20464;-76
2023/03/06 00:42:18;;;;;;;10.30;6.70;;;;;;;-0.92;100.00;95428.81;5072884;28;20480;-76
2023/03/06 00:44:45;;;;;;;11.60;6.77;;;;;;;-0.98;100.00;95416.16;5085491;28;20871;-76
2023/03/06 00:47:12;;;;;;;9.63;5.63;;;;;;;-0.95;100.00;95428.56;5067167;28;20824;-76
2023/03/06 00:49:39;;;;;;;8.70;6.40;;;;;;;-1.28;100.00;95376.50;5058170;28;20434;-76
2023/03/06 00:52:05;;;;;;;13.40;6.83;;;;;;;-1.07;100.00;95412.59;5055757;28;21059;-76
2023/03/06 00:54:32;;;;;;;10.70;5.60;;;;;;;-1.07;100.00;95421.19;5060182;28;20475;-76
2023/03/06 00:56:59;;;;;;;9.20;6.40;;;;;;;-1.23;100.00;95396.44;5081208;28;20428;-76
2023/03/06 00:59:26;;;;;;;7.17;5.77;;;;;;;-1.06;100.00;95414.94;5073663;28;20859;-76
2023/03/06 01:01:53;;;;;;;9.43;6.93;;;;;;;-1.29;100.00;95381.97;5055588;28;20486;-76
2023/03/06 01:04:20;;;;;;;10.70;6.20;;;;;;;-1.28;100.00;95370.56;5085799;28;20531;-76
2023/03/06 01:06:47;;;;;;;17.13;7.70;;;;;;;-1.25;100.00;95370.00;5072083;28;20463;-76
2023/03/06 01:09:14;;;;;;;9.97;6.83;;;;;;;-1.02;100.00;95394.41;5072164;28;21015;-76
2023/03/06 01:11:41;;;;;;;15.07;8.53;;;;;;;-1.06;100.00;95398.63;5073338;28;20475;-76
2023/03/06 01:14:09;;;;;;;12.50;8.10;;;;;;;-1.16;100.00;95383.16;5058390;28;20476;-76
2023/03/06 01:16:36;;;;;;;8.63;6.83;;;;;;;-1.10;100.00;95395.78;5073222;28;20424;-76
2023/03/06 01:19:02;;;;;;;10.80;7.57;;;;;;;-1.20;100.00;95386.28;5093347;28;20446;-76
2023/03/06 01:21:29;;;;;;;14.10;5.97;;;;;;;-1.22;100.00;95392.78;5091955;28;20455;-76
2023/03/06 01:23:57;;;;;;;9.90;7.70;;;;;;;-1.21;100.00;95382.13;5085170;28;20454;-76
2023/03/06 01:26:24;;;;;;;10.80;6.97;;;;;;;-1.40;100.00;95346.81;5071768;28;20456;-76
2023/03/06 01:28:50;;;;;;;9.20;6.27;;;;;;;-1.43;100.00;95340.38;5055142;28;20433;-76
2023/03/06 01:31:17;;;;;;;14.67;8.03;;;;;;;-1.37;100.00;95341.09;5055042;28;20543;-76
2023/03/06 01:33:43;;;;;;;18.70;7.90;;;;;;;-1.30;100.00;95357.09;5062090;28;20618;-76
2023/03/06 01:36:12;;;;;;;10.90;6.23;;;;;;;-1.21;100.00;95369.16;5092404;28;20455;-75
2023/03/06 01:38:38;;;;;;;9.77;6.87;;;;;;;-1.19;100.00;95353.38;5072762;28;20525;-75
2023/03/06 01:41:05;;;;;;;9.83;6.90;;;;;;;-1.16;100.00;95359.81;5054829;28;20428;-75
2023/03/06 01:43:41;;;;;;;14.60;8.33;;;;;;;-1.17;100.00;95356.44;5078991;28;21006;-75
2023/03/06 01:46:33;;;;;;;14.03;8.63;;;;;;;-0.91;100.00;95359.53;5077854;28;20447;-75
2023/03/06 01:49:01;;;;;;;13.47;8.07;;;;;;;-0.86;100.00;95363.88;5074945;28;20859;-75
2023/03/06 01:51:34;;;;;;;10.83;8.47;;;;;;;-0.87;100.00;95360.53;5068821;28;20482;-75
2023/03/06 01:54:07;;;;;;;11.80;8.80;;;;;;;-1.00;100.00;95343.81;5084911;28;20897;-75
2023/03/06 01:56:35;;;;;;;13.47;8.00;;;;;;;-1.22;100.00;95323.56;5070817;28;20887;-75
2023/03/06 01:59:03;;;;;;;12.70;8.27;;;;;;;-1.17;100.00;95320.16;5072330;28;20463;-75
2023/03/06 02:01:31;;;;;;;14.23;8.60;;;;;;;-1.06;100.00;95333.78;5083043;28;20468;-75
2023/03/06 02:04:00;;;;;;;13.20;8.63;;;;;;;-1.20;100.00;95307.75;5054662;28;20440;-75
2023/03/06 02:06:28;;;;;;;10.23;7.80;;;;;;;-1.17;100.00;95311.59;5063648;28;20438;-75
2023/03/06 02:08:54;;;;;;;10.87;8.20;;;;;;;-1.05;100.00;95335.31;5089860;28;20502;-75
2023/03/06 02:11:23;;;;;;;12.23;7.70;;;;;;;-1.13;100.00;95326.31;5050953;28;20540;-75
2023/03/06 02:13:52;;;;;;;16.30;8.40;;;;;;;-1.15;100.00;95327.66;5067930;28;20857;-75
2023/03/06 02:16:23;;;;;;;10.47;7.13;;;;;;;-1.41;100.00;95302.00;5050764;28;20562;-75
2023/03/06 02:18:51;;;;;;;12.17;8.50;;;;;;;-1.46;100.00;95285.75;5070762;28;20518;-75
2023/03/06 02:21:25;;;;;;;12.40;7.73;;;;;;;-1.20;100.00;95325.91;5054499;28;20452;-75
2023/03/06 02:24:03;;;;;;;11.50;7.90;;;;;;;-1.20;100.00;95321.47;5070999;28;21036;-75
2023/03/06 02:26:33;;;;;;;9.70;6.73;;;;;;;-1.26;100.00;95309.59;5085695;28;20469;-75
2023/03/06 02:28:59;;;;;;;13.73;7.40;;;;;;;-1.33;100.00;95313.59;5082263;28;20439;-75
2023/03/06 02:31:29;;;;;;;12.10;7.83;;;;;;;-1.51;100.00;95281.34;5070603;28;20444;-76
2023/03/06 02:34:03;;;;;;;13.10;8.63;;;;;;;-1.28;100.00;95314.28;5054124;28;20432;-76
2023/03/06 02:36:32;;;;;;;15.90;10.67;;;;;;;-1.27;100.00;95302.09;5071674;28;20456;-76
2023/03/06 02:38:59;;;;;;;13.20;8.20;;;;;;;-1.34;100.00;95284.28;5070665;28;20447;-75
2023/03/06 02:41:26;;;;;;;12.90;10.00;;;;;;;-1.10;100.00;95299.06;5074903;28;20457;-75
2023/03/06 02:43:53;;;;;;;18.03;9.93;;;;;;;-1.10;100.00;95299.81;5090673;28;20790;-75
2023/03/06 02:46:19;;;;;;;18.20;11.60;;;;;;;-1.26;100.00;95273.31;5056007;28;20428;-75
2023/03/06 02:48:46;;;;;;;14.50;8.90;;;;;;;-1.16;100.00;95293.16;5059480;28;20437;-75
2023/03/06 02:51:13;;;;;;;15.07;9.33;;;;;;;-1.21;100.00;95299.16;5081597;28;20460;-75
2023/03/06 02:53:40;;;;;;;10.63;7.60;;;;;;;-1.43;100.00;95252.25;5053862;28;20802;-75
2023/03/06 02:56:07;;;;;;;15.03;8.23;;;;;;;-1.23;100.00;95292.72;5071651;28;20451;-75
2023/03/06 02:58:33;;;;;;;16.67;9.20;;;;;;;-1.40;100.00;95256.09;5081945;28;20830;-75
2023/03/06 03:01:00;;;;;;;13.10;9.10;;;;;;;-1.56;100.00;95250.31;5055572;28;20432;-75
2023/03/06 03:03:28;;;;;;;15.07;10.10;;;;;;;-1.59;100.00;95274.19;5065690;28;20447;-75
2023/03/06 03:05:56;;;;;;;15.10;8.80;;;;;;;-1.61;100.00;95274.44;5055292;28;20433;-75
2023/03/06 03:08:27;;;;;;;16.90;9.80;;;;;;;-1.64;100.00;95269.06;5071836;28;20514;-75
2023/03/06 03:10:59;;;;;;;11.17;9.07;;;;;;;-1.51;100.00;95284.72;5058195;28;20519;-75
2023/03/06 03:13:31;;;;;;;12.73;9.13;;;;;;;-1.51;100.00;95269.16;5075476;28;20439;-75
2023/03/06 03:16:06;;;;;;;13.73;8.90;;;;;;;-1.44;100.00;95289.59;5086469;28;20984;-75
2023/03/06 03:18:34;;;;;;;18.40;9.47;;;;;;;-1.51;100.00;95279.53;5074312;28;20428;-75
2023/03/06 03:21:06;;;;;;;12.10;8.30;;;;;;;-1.47;100.00;95277.16;5057531;28;20435;-75
2023/03/06 03:23:33;;;;;;;16.63;9.23;;;;;;;-1.48;100.00;95276.38;5054092;28;20506;-75
2023/03/06 03:26:14;;;;;;;14.63;8.70;;;;;;;-1.52;100.00;95236.53;5054087;28;20430;-75
2023/03/06 03:28:45;;;;;;;12.93;8.43;;;;;;;-1.46;100.00;95245.03;5054430;28;20473;-75
2023/03/06 03:31:17;;;;;;;12.20;8.40;;;;;;;-1.45;100.00;95251.00;5072075;28;20474;-76
2023/03/06 03:33:44;;;;;;;15.10;9.07;;;;;;;-1.58;100.00;95229.09;5086504;28;20511;-76
2023/03/06 03:36:11;;;;;;;13.77;9.63;;;;;;;-1.54;100.00;95230.09;5070939;28;20462;-76
2023/03/06 03:38:41;;;;;;;12.80;9.00;;;;;;;-1.26;100.00;95257.75;5065584;28;20497;-76
2023/03/06 03:41:09;;;;;;;16.07;9.03;;;;;;;-1.50;100.00;95218.88;5078729;28;20447;-76
2023/03/06 03:43:35;;;;;;;16.43;10.13;;;;;;;-1.41;100.00;95221.66;5081835;28;21026;-76
2023/03/06 03:46:02;;;;;;;16.50;8.43;;;;;;;-1.26;100.00;95252.56;5093832;28;20431;-76
2023/03/06 03:48:29;;;;;;;11.80;9.23;;;;;;;-1.35;100.00;95232.72;5093944;28;20431;-76
2023/03/06 03:51:07;;;;;;;15.10;9.67;;;;;;;-1.37;100.00;95245.94;5061826;28;20428;-76
2023/03/06 03:53:37;;;;;;;16.53;8.63;;;;;;;-1.47;100.00;95225.31;5084425;28;20447;-76
2023/03/06 03:56:05;;;;;;;12.00;9.23;;;;;;;-1.27;100.00;95245.06;5089540;28;20838;-76
2023/03/06 03:58:36;;;;;;;16.17;9.07;;;;;;;-1.43;100.00;95225.56;5084941;28;20431;-76
2023/03/06 04:01:04;;;;;;;14.63;8.63;;;;;;;-1.31;100.00;95234.50;5075144;28;20805;-76
2023/03/06 04:03:30;;;;;;;13.40;9.00;;;;;;;-1.52;100.00;95208.03;5056774;28;20437;-76
2023/03/06 04:05:57;;;;;;;14.03;9.07;;;;;;;-1.42;100.00;95211.56;5056803;28;20467;-76
2023/03/06 04:08:26;;;;;;;13.97;8.40;;;;;;;-1.26;100.00;95231.06;5085168;28;20888;-76
2023/03/06 04:10:53;;;;;;;17.63;9.53;;;;;;;-1.13;100.00;95230.38;5074780;28;21012;-76
2023/03/06 04:13:21;;;;;;;11.63;8.43;;;;;;;-1.06;100.00;95237.81;5070159;28;20920;-76
2023/03/06 04:15:51;;;;;;;14.97;8.83;;;;;;;-1.03;100.00;95230.25;5059777;28;20494;-76
2023/03/06 04:18:19;;;;;;;12.23;8.73;;;;;;;-1.30;100.00;95191.97;5070688;28;20943;-76
2023/03/06 04:20:47;;;;;;;20.87;9.27;;;;;;;-1.11;100.00;95217.91;5075793;28;20482;-76
2023/03/06 04:23:15;;;;;;;17.80;9.70;;;;;;;-1.26;100.00;95187.75;5078383;28;20457;-76
2023/03/06 04:25:43;;;;;;;14.17;7.87;;;;;;;-1.03;100.00;95216.50;5073030;28;20443;-76
2023/03/06 04:28:11;;;;;;;15.30;9.30;;;;;;;-1.07;100.00;95207.72;5069970;28;20538;-76
2023/03/06 04:30:38;;;;;;;14.60;8.73;;;;;;;-1.28;100.00;95184.69;5056245;28;20463;-76
2023/03/06 04:33:06;;;;;;;12.67;9.27;;;;;;;-1.17;100.00;95200.88;5056547;28;20460;-76
2023/03/06 04:35:33;;;;;;;12.57;9.13;;;;;;;-1.18;100.00;95203.75;5064863;28;20487;-76
2023/03/06 04:38:04;;;;;;;13.60;8.27;;;;;;;-1.19;100.00;95213.34;5090076;28;20452;-76
2023/03/06 04:40:33;;;;;;;15.50;9.33;;;;;;;-1.37;100.00;95182.97;5082485;28;20477;-76
2023/03/06 04:43:00;;;;;;;12.70;9.70;;;;;;;-1.33;100.00;95179.56;5079477;28;20807;-76
2023/03/06 04:45:28;;;;;;;14.37;8.03;;;;;;;-1.15;100.00;95201.38;5094222;28;20420;-76
2023/03/06 04:47:56;;;;;;;18.70;8.83;;;;;;;-1.03;100.00;95201.72;5058539;28;20436;-75
2023/03/06 04:50:24;;;;;;;20.83;9.03;;;;;;;-1.04;100.00;95204.59;5083899;28;20435;-76
2023/03/06 04:52:51;;;;;;;10.83;7.93;;;;;;;-1.26;100.00;95174.03;5078977;28;20467;-76
2023/03/06 04:55:18;;;;;;;21.73;9.87;;;;;;;-1.03;100.00;95204.31;5082491;28;20484;-76
2023/03/06 04:57:46;;;;;;;13.20;8.30;;;;;;;-1.24;100.00;95143.41;5091070;28;20427;-76
2023/03/06 05:00:17;;;;;;;15.77;10.77;;;;;;;-0.95;100.00;95174.38;5064114;28;20440;-76
2023/03/06 05:02:44;;;;;;;15.37;9.77;;;;;;;-0.90;100.00;95195.06;5073755;28;20505;-76
2023/03/06 05:05:12;;;;;;;13.60;8.40;;;;;;;-1.04;100.00;95174.25;5086702;28;20526;-76
2023/03/06 05:07:39;;;;;;;15.83;10.80;;;;;;;-1.01;100.00;95188.47;5080013;28;20424;-76
2023/03/06 05:10:09;;;;;;;21.33;10.43;;;;;;;-1.18;100.00;95151.91;5075867;28;20996;-76
2023/03/06 05:12:36;;;;;;;14.50;8.73;;;;;;;-1.20;100.00;95184.06;5058800;28;20480;-76
2023/03/06 05:15:04;;;;;;;13.37;9.20;;;;;;;-1.14;100.00;95187.34;5085819;28;20451;-76
2023/03/06 05:17:31;;;;;;;18.60;10.07;;;;;;;-1.14;100.00;95181.41;5062888;28;20475;-76
2023/03/06 05:19:58;;;;;;;14.07;8.47;;;;;;;-1.22;100.00;95178.38;5066149;28;20432;-76
2023/03/06 05:22:24;;;;;;;14.00;8.40;;;;;;;-1.05;100.00;95184.91;5092107;28;20455;-76
2023/03/06 05:24:51;;;;;;;14.67;9.90;;;;;;;-1.49;100.00;95131.53;5061794;28;20472;-76
2023/03/06 05:27:18;;;;;;;18.80;9.10;;;;;;;-1.29;100.00;95157.22;5093367;28;20420;-76
2023/03/06 05:29:44;;;;;;;19.50;10.20;;;;;;;-1.31;100.00;95158.56;5078014;28;20566;-76
2023/03/06 05:32:11;;;;;;;12.17;8.63;;;;;;;-1.31;100.00;95146.34;5080335;28;20860;-76
2023/03/06 05:34:38;;;;;;;13.73;8.90;;;;;;;-1.00;100.00;95169.25;5060828;28;20491;-76
2023/03/06 05:37:05;;;;;;;15.50;9.63;;;;;;;-1.24;100.00;95149.34;5079318;28;20894;-76
2023/03/06 05:39:32;;;;;;;19.20;9.80;;;;;;;-1.24;100.00;95161.56;5060701;28;20490;-76
2023/03/06 05:41:59;;;;;;;18.43;10.37;;;;;;;-1.33;100.00;95153.66;5055082;28;20510;-75
2023/03/06 05:44:33;;;;;;;12.60;8.20;;;;;;;-1.37;100.00;95150.06;5071650;28;20524;-75
2023/03/06 05:47:00;;;;;;;12.30;9.30;;;;;;;-1.25;100.00;95173.75;5080640;28;20431;-75
2023/03/06 05:49:32;;;;;;;16.43;10.20;;;;;;;-1.33;100.00;95176.97;5079286;28;20428;-75
2023/03/06 05:51:59;;;;;;;18.67;9.97;;;;;;;-1.55;100.00;95143.03;5081403;28;20440;-75
2023/03/06 05:54:26;;;;;;;16.20;13.53;;;;;;;-1.49;100.00;95152.28;5084993;28;20433;-75
2023/03/06 05:56:52;;;;;;;19.10;10.80;;;;;;;-1.39;100.00;95146.19;5054244;28;20545;-75
2023/03/06 05:59:19;;;;;;;18.60;9.60;;;;;;;-1.14;100.00;95168.44;5060758;28;20455;-75
2023/03/06 06:01:45;;;;;;;20.13;10.53;;;;;;;-1.36;100.00;95138.63;5080760;28;20480;-75
2023/03/06 06:04:12;;;;;;;16.90;11.13;;;;;;;-1.39;100.00;95138.44;5074499;28;20536;-75
2023/03/06 06:06:39;;;;;;;14.43;9.40;;;;;;;-1.41;100.00;95133.53;5074339;28;20799;-75
2023/03/06 06:09:05;;;;;;;14.97;9.63;;;;;;;-1.40;100.00;95137.66;5087037;28;20956;-75
2023/03/06 06:11:32;;;;;;;15.17;10.00;;;;;;;-1.29;100.00;95148.66;5054115;28;20459;-75
2023/03/06 06:13:59;;;;;;;16.60;10.87;;;;;;;-1.34;100.00;95138.34;5087478;28;20585;-75
2023/03/06 06:16:25;;;;;;;19.73;10.90;;;;;;;-1.54;100.00;95124.63;5070385;28;20468;-75
2023/03/06 06:18:52;;;;;;;17.73;11.13;;;;;;;-1.23;100.00;95168.28;5064042;28;20943;-75
2023/03/06 06:21:18;;;;;;;15.90;9.73;;;;;;;-1.37;100.00;95139.69;5092208;28;20444;-75
2023/03/06 06:23:45;;;;;;;19.27;9.80;;;;;;;-1.18;100.00;95160.44;5085330;28;20813;-75
2023/03/06 06:26:12;;;;;;;20.00;11.10;;;;;;;-1.40;100.00;95142.06;5071987;28;20447;-75
2023/03/06 06:28:38;;;;;;;17.07;10.50;;;;;;;-1.38;100.00;95124.41;5076901;28;20789;-75
2023/03/06 06:31:11;;;;;;;14.43;10.10;;;;;;;-1.09;100.00;95163.16;5078639;28;20466;-75
2023/03/06 06:33:39;;;;;;;19.73;10.10;;;;;;;-1.07;100.00;95171.44;5077909;28;20426;-75
2023/03/06 06:36:15;;;;;;;15.80;9.47;;;;;;;-1.26;100.00;95145.50;5077410;28;20525;-75
2023/03/06 06:38:42;;;;;;;21.67;9.30;;;;;;;-1.19;100.00;95140.75;5065408;28;20525;-76
2023/03/06 06:41:09;;;;;;;17.57;11.27;;;;;;;-1.23;100.00;95137.94;5089882;28;20422;-75
2023/03/06 06:43:56;;;;;;;15.70;9.73;;;;;;;-1.06;100.00;95162.63;5070093;28;20436;-75
2023/03/06 06:46:25;;;;;;;17.70;9.70;;;;;;;-1.11;100.00;95147.13;5058124;28;20936;-75
2023/03/06 06:49:13;;;;;;;20.27;10.90;;;;;;;-0.96;100.00;95160.63;5063170;28;21002;-75
2023/03/06 06:51:40;;;;;;;16.43;9.90;;;;;;;-0.86;100.00;95164.91;5073891;28;20500;-76
2023/03/06 06:54:07;;;;;;;16.40;9.40;;;;;;;-0.87;100.00;95147.81;5077664;28;20523;-75
2023/03/06 06:56:34;;;;;;;16.83;10.27;;;;;;;-0.98;100.00;95142.00;5078302;28;20509;-75
2023/03/06 06:59:01;;;;;;;16.43;10.10;;;;;;;-1.10;100.00;95148.66;5078418;28;20424;-75
2023/03/06 07:01:42;;;;;;;15.07;10.20;;;;;;;-1.16;100.00;95134.22;5080300;28;20460;-75
2023/03/06 07:04:13;;;;;;;16.67;10.23;;;;;;;-0.94;100.00;95168.91;5070233;28;20428;-75
2023/03/06 07:06:41;;;;;;;18.20;11.97;;;;;;;-0.84;100.00;95173.19;5081560;28;20957;-76
2023/03/06 07:09:08;;;;;;;15.43;12.20;;;;;;;-0.82;100.00;95165.88;5068755;28;20447;-75
2023/03/06 07:11:36;;;;;;;15.80;11.27;;;;;;;-0.80;100.00;95157.81;5070113;28;20491;-76
2023/03/06 07:14:02;;;;;;;21.37;13.27;;;;;;;-0.89;100.00;95152.50;5084830;28;20531;-76
2023/03/06 07:16:29;;;;;;;21.57;11.80;;;;;;;-0.75;100.00;95166.31;5083842;28;20455;-76
2023/03/06 07:18:56;;;;;;;18.20;10.93;;;;;;;-1.08;100.00;95107.66;5071044;28;20519;-76
2023/03/06 07:21:22;;;;;;;15.47;10.93;;;;;;;-0.57;100.00;95140.59;5070129;28;21010;-76
2023/03/06 07:23:49;;;;;;;14.40;10.20;;;;;;;-0.48;100.00;95152.66;5071618;28;20424;-76
2023/03/06 07:26:15;;;;;;;17.00;10.80;;;;;;;-0.46;100.00;95137.56;5069966;28;20821;-76
2023/03/06 07:28:42;;;;;;;18.23;11.67;;;;;;;-0.13;100.00;95181.69;5066939;28;20543;-76
2023/03/06 07:31:24;;;;;;;18.50;10.47;;;;;;;-0.04;100.00;95178.13;5054587;28;20456;-76
2023/03/06 07:33:52;;;;;;;19.70;11.57;;;;;;;0.03;100.00;95179.56;5074187;28;20451;-76
2023/03/06 07:36:21;;;;;;;16.83;10.33;;;;;;;0.03;100.00;95154.38;5084804;28;20459;-76
2023/03/06 07:38:48;;;;;;;17.67;11.43;;;;;;;-0.13;100.00;95119.34;5079794;28;20415;-76
2023/03/06 07:41:15;;;;;;;18.27;13.60;;;;;;;0.28;100.00;95176.53;5076361;28;20465;-76
2023/03/06 07:43:43;;;;;;;21.53;13.73;;;;;;;0.29;100.00;95178.81;5081096;28;20531;-76
2023/03/06 07:46:13;;;;;;;21.33;14.37;;;;;;;0.33;100.00;95186.81;5073789;28;20424;-76
2023/03/06 07:48:40;;;;;;;20.77;13.20;;;;;;;0.18;100.00;95151.50;5080401;28;20523;-76
2023/03/06 07:51:12;;;;;;;21.87;13.30;;;;;;;0.34;100.00;95180.56;5069724;28;20996;-76
2023/03/06 07:53:39;;;;;;;20.97;12.70;;;;;;;0.18;100.00;95151.50;5081852;28;20429;-76
2023/03/06 07:56:07;;;;;;;24.37;13.40;;;;;;;0.20;100.00;95154.56;5078583;28;20455;-76
2023/03/06 07:58:36;;;;;;;20.93;11.80;;;;;;;0.42;100.00;95185.09;5062400;28;20441;-76
2023/03/06 08:01:05;;;;;;;19.50;13.43;;;;;;;0.51;100.00;95188.53;5072785;28;20983;-76
2023/03/06 08:03:32;;;;;;;21.10;12.70;;;;;;;0.46;100.00;95178.25;5085430;28;20441;-76
2023/03/06 08:06:10;;;;;;;20.50;11.27;;;;;;;0.57;100.00;95176.97;5063110;28;20496;-76
2023/03/06 08:08:38;;;;;;;25.07;12.60;;;;;;;0.29;100.00;95131.28;5059760;28;20456;-76
2023/03/06 08:11:06;;;;;;;19.77;12.30;;;;;;;0.53;100.00;95160.41;5073098;28;20483;-76
2023/03/06 08:13:34;;;;;;;21.77;15.20;;;;;;;0.57;100.00;95166.59;5088190;28;20522;-76
2023/03/06 08:16:02;;;;;;;22.00;13.70;;;;;;;0.65;100.00;95175.50;5081274;28;20924;-76
2023/03/06 08:18:29;;;;;;;22.70;14.20;;;;;;;0.63;100.00;95151.63;5064730;28;20493;-76
2023/03/06 08:21:04;;;;;;;26.57;16.73;;;;;;;0.56;100.00;95130.47;5084827;28;20493;-76
2023/03/06 08:23:32;;;;;;;26.70;15.70;;;;;;;0.43;100.00;95124.22;5086626;28;20446;-76
2023/03/06 08:26:02;;;;;;;21.93;15.40;;;;;;;0.58;100.00;95125.75;5073058;28;20529;-76
2023/03/06 08:28:29;;;;;;;30.07;19.77;;;;;;;0.69;100.00;95147.88;5060160;28;20872;-76
2023/03/06 08:30:56;;;;;;;50.47;28.43;;;;;;;0.36;100.00;95100.44;5082413;28;20452;-76
2023/03/06 08:33:24;;;;;;;54.27;30.67;;;;;;;0.67;100.00;95149.22;5086553;28;20459;-76
2023/03/06 08:35:51;;;;;;;91.07;42.40;;;;;;;0.92;100.00;95171.31;5072595;28;20436;-76
2023/03/06 08:38:18;;;;;;;37.57;19.27;;;;;;;0.85;100.00;95175.09;5077016;28;20530;-76
2023/03/06 08:40:45;;;;;;;36.53;19.40;;;;;;;0.54;100.00;95109.97;5081713;28;20432;-76
2023/03/06 08:43:11;;;;;;;45.50;33.03;;;;;;;0.77;100.00;95141.97;5072615;28;20448;-76
2023/03/06 08:45:40;;;;;;;35.97;17.10;;;;;;;1.07;100.00;95171.00;5073858;28;20425;-76
2023/03/06 08:48:06;;;;;;;27.23;16.00;;;;;;;0.97;100.00;95142.59;5078892;28;20527;-76
2023/03/06 08:50:33;;;;;;;23.87;12.63;;;;;;;0.93;100.00;95131.22;5092610;28;20431;-76
2023/03/06 08:53:00;;;;;;;24.07;14.53;;;;;;;0.82;100.00;95105.47;5078902;28;20967;-77
2023/03/06 08:55:27;;;;;;;23.67;14.90;;;;;;;1.04;100.00;95137.75;5080768;28;20428;-77
2023/03/06 08:57:53;;;;;;;25.97;15.73;;;;;;;1.35;100.00;95176.91;5069042;28;20551;-77
2023/03/06 09:00:20;;;;;;;22.20;12.43;;;;;;;1.07;100.00;95137.97;5086095;28;20424;-77
2023/03/06 09:02:47;;;;;;;24.20;14.80;;;;;;;0.96;100.00;95136.63;5062471;28;20476;-77
2023/03/06 09:05:13;;;;;;;20.73;12.63;;;;;;;1.09;100.00;95150.66;5080207;28;20464;-77
2023/03/06 09:07:40;;;;;;;20.33;12.73;;;;;;;0.86;100.00;95126.44;5086619;28;20988;-77
2023/03/06 09:10:11;;;;;;;22.30;13.63;;;;;;;1.04;100.00;95166.38;5072219;28;20523;-77
2023/03/06 09:12:38;;;;;;;16.67;12.10;;;;;;;1.00;100.00;95150.59;5042915;28;20459;-77
2023/03/06 09:15:19;;;;;;;21.80;14.87;;;;;;;1.09;100.00;95148.84;5072183;28;20423;-77
2023/03/06 09:17:49;;;;;;;18.93;11.47;;;;;;;1.12;100.00;95163.84;5055404;28;20999;-77
2023/03/06 09:20:17;;;;;;;19.13;11.27;;;;;;;1.30;100.00;95184.81;5085476;28;20439;-77
2023/03/06 09:22:44;;;;;;;17.00;11.90;;;;;;;1.26;100.00;95176.06;5082623;28;20451;-77
2023/03/06 09:25:12;;;;;;;16.87;11.77;;;;;;;1.09;100.00;95151.44;5061696;28;20538;-77
2023/03/06 09:27:39;;;;;;;18.80;11.33;;;;;;;1.13;100.00;95165.38;5081328;28;20424;-77
2023/03/06 09:30:07;;;;;;;19.67;12.00;;;;;;;1.11;100.00;95166.75;5085321;28;20460;-77
2023/03/06 09:32:33;;;;;;;17.67;13.87;;;;;;;0.98;100.00;95144.16;5072793;28;20441;-77
2023/03/06 09:35:00;;;;;;;20.00;12.00;;;;;;;0.74;100.00;95108.75;5055025;28;20444;-77
2023/03/06 09:37:27;;;;;;;14.83;9.20;;;;;;;1.07;100.00;95157.97;5055004;28;20517;-77
2023/03/06 09:39:53;;;;;;;15.07;10.63;;;;;;;1.16;100.00;95158.81;5089552;28;20522;-77
2023/03/06 09:42:22;;;;;;;20.13;12.73;;;;;;;1.46;100.00;95188.59;5080303;28;20547;-77
2023/03/06 09:44:53;;;;;;;18.97;11.70;;;;;;;1.47;100.00;95184.94;5085020;28;20444;-77
2023/03/06 09:47:46;;;;;;;15.47;10.93;;;;;;;1.50;100.00;95186.19;5085081;28;20515;-77
2023/03/06 09:50:45;;;;;;;22.20;12.40;;;;;;;1.54;100.00;95180.06;5053587;28;20465;-77
2023/03/06 09:53:31;;;;;;;14.77;11.50;;;;;;;1.49;100.00;95180.22;5005157;28;21019;-76
2023/03/06 09:56:14;;;;;;;11.50;8.93;;;;;;;1.36;100.00;95184.41;5084731;28;20428;-76
2023/03/06 09:59:30;;;;;;;15.33;9.90;;;;;;;1.40;100.00;95189.78;5083587;28;20549;-77
2023/03/06 10:02:17;;;;;;;16.37;11.00;;;;;;;1.40;100.00;95159.31;5054976;28;20976;-77
2023/03/06 10:04:54;;;;;;;14.20;8.20;;;;;;;1.26;100.00;95156.00;5043379;28;20432;-77
2023/03/06 10:07:26;;;;;;;15.57;10.17;;;;;;;1.35;100.00;95137.84;5086052;28;20732;-77
2023/03/06 10:09:57;;;;;;;17.27;10.07;;;;;;;1.62;100.00;95153.31;5071513;28;20485;-77
2023/03/06 10:12:29;;;;;;;12.33;8.87;;;;;;;1.81;100.00;95173.19;5041023;28;20564;-77
2023/03/06 10:15:02;;;;;;;14.47;9.97;;;;;;;1.80;100.00;95166.44;5054468;28;20444;-77
2023/03/06 10:17:38;;;;;;;20.63;9.70;;;;;;;1.47;100.00;95132.88;5064442;28;20836;-77
2023/03/06 10:20:24;;;;;;;8.27;6.10;;;;;;;1.71;100.00;95172.38;5061031;28;20610;-77
2023/03/06 10:22:56;;;;;;;10.57;7.30;;;;;;;1.64;100.00;95173.88;5080034;28;20490;-77
2023/03/06 10:25:45;;;;;;;15.67;10.37;;;;;;;1.55;100.00;95132.13;5085744;28;20474;-77
2023/03/06 10:28:16;;;;;;;13.10;9.73;;;;;;;1.90;100.00;95166.97;5072030;28;20561;-77
2023/03/06 10:31:04;;;;;;;12.03;9.30;;;;;;;1.84;100.00;95157.72;5092348;28;20447;-77
2023/03/06 10:33:46;;;;;;;14.27;11.80;;;;;;;1.97;100.00;95166.53;5060924;28;20431;-77
2023/03/06 10:36:17;;;;;;;16.70;9.80;;;;;;;2.00;100.00;95142.47;5077736;28;20506;-77
2023/03/06 10:38:47;;;;;;;16.37;9.27;;;;;;;2.06;100.00;95160.28;5084326;28;20966;-77
2023/03/06 10:41:17;;;;;;;12.90;9.47;;;;;;;2.19;100.00;95165.72;5086004;28;20433;-77
2023/03/06 10:44:05;;;;;;;9.63;8.20;;;;;;;2.19;100.00;95163.09;5080215;28;20430;-77
2023/03/06 10:46:35;;;;;;;16.60;9.30;;;;;;;2.06;100.00;95162.91;5078036;28;20542;-78
2023/03/06 10:49:05;;;;;;;11.07;8.10;;;;;;;1.91;100.00;95163.28;5079199;28;20876;-77
2023/03/06 10:51:33;;;;;;;9.37;6.60;;;;;;;1.72;100.00;95150.47;5068148;28;21018;-77
2023/03/06 10:54:02;;;;;;;8.63;6.83;;;;;;;1.73;100.00;95172.06;5074490;28;20471;-77
2023/03/06 10:56:40;;;;;;;12.13;8.93;;;;;;;1.72;100.00;95170.53;5081750;28;20435;-77
2023/03/06 10:59:08;;;;;;;11.03;7.10;;;;;;;1.75;100.00;95164.75;5075777;28;20432;-77
2023/03/06 11:01:35;;;;;;;17.77;8.20;;;;;;;1.86;100.00;95157.41;5070425;28;20967;-77
2023/03/06 11:04:20;;;;;;;11.47;9.03;;;;;;;2.03;100.00;95160.91;5085747;28;20431;-77
2023/03/06 11:07:02;;;;;;;14.53;9.30;;;;;;;2.07;100.00;95161.06;5084049;28;20419;-78
2023/03/06 11:09:29;;;;;;;11.63;8.67;;;;;;;2.13;100.00;95154.63;5041688;28;20436;-78
2023/03/06 11:12:19;;;;;;;16.73;9.80;;;;;;;2.26;100.00;95166.03;5053653;28;20544;-78
2023/03/06 11:14:46;;;;;;;15.10;10.07;;;;;;;2.00;100.00;95130.22;5094347;28;20446;-78
2023/03/06 11:17:30;;;;;;;10.07;8.40;;;;;;;2.08;100.00;95147.72;5090988;28;20474;-78
2023/03/06 11:20:16;;;;;;;13.73;10.00;;;;;;;2.06;100.00;95147.25;5073538;28;21015;-78
2023/03/06 11:22:50;;;;;;;15.10;8.80;;;;;;;1.85;100.00;95135.03;5063348;28;20452;-77
2023/03/06 11:25:19;;;;;;;9.97;8.90;;;;;;;1.82;100.00;95144.22;5073573;28;20420;-78
2023/03/06 11:27:54;;;;;;;15.00;9.17;;;;;;;1.66;100.00;95130.81;5076076;28;20419;-78